OOCL St Petersburg — PHCZ — position and weather

sailwx.info

Track history (hours):
 
Tides and Currents Weather Stations Pressure Air Temp Water Temp Dewpoint Dewpoint Depression Visibility Wind Speed Wind Dir Waves Ship Positions

OOCL St Petersburg

Last reported at 2017-Nov-20 00:18 UTC. Time now 2017-Nov-21 23:22 UTC.
Position N 47°57' W 006°33'.

MMSI: 229583784.

Date/timePositionNaut miles runAvg speedWind from/ knotsBaromVisibWave heightAir tempDewpointWater temp
2017-Nov-20 00:18N 47°57' W 006°33'616.4
2017-Nov-19 23:58N 48°02' W 006°29'1417.0
2017-Nov-19 23:09N 48°14' W 006°19'317.5
2017-Nov-19 22:59N 48°17' W 006°17'817.5
2017-Nov-19 22:30N 48°24' W 006°11'918.0
2017-Nov-19 21:58N 48°32' W 006°04'818.0
2017-Nov-19 21:30N 48°40' W 005°59'918.1
2017-Nov-19 21:00N 48°48' W 005°52'917.5
2017-Nov-19 20:29N 48°55' W 005°44'917.4
2017-Nov-19 20:00N 48°59' W 005°32'1116.9
2017-Nov-19 19:20N 49°05' W 005°18'616.4
2017-Nov-19 18:58N 49°08' W 005°10'816.0
2017-Nov-19 18:29N 49°12' W 004°60'815.7
2017-Nov-19 17:58N 49°16' W 004°49'1515.2
2017-Nov-19 16:58N 49°23' W 004°28'2215.6
2017-Nov-19 15:32N 49°34' W 003°58'1617.0
2017-Nov-19 14:34N 49°43' W 003°37'718.0
2017-Nov-19 14:12N 49°46' W 003°28'418.3
2017-Nov-19 14:00N 49°48' W 003°23'918.8
2017-Nov-19 13:31N 49°53' W 003°11'1019.0
2017-Nov-19 13:00N 49°58' W 002°58'918.7
2017-Nov-19 12:30N 50°02' W 002°45'2517.8
2017-Nov-19 11:05N 50°08' W 002°07'116.5
2017-Nov-19 11:00N 50°09' W 002°05'816.1
2017-Nov-19 10:30N 50°11' W 001°53'815.2
2017-Nov-19 10:00N 50°13' W 001°41'714.6
2017-Nov-19 09:30N 50°15' W 001°30'714.0
2017-Nov-19 09:01N 50°17' W 001°20'2013.9
2017-Nov-19 07:33N 50°23' W 000°50'114.7
2017-Nov-19 07:29N 50°23' W 000°48'1415.1
2017-Nov-19 06:35N 50°26' W 000°27'115.8
2017-Nov-19 06:30N 50°26' W 000°25'816.3
2017-Nov-19 06:00N 50°29' W 000°13'917.0
2017-Nov-19 05:30N 50°31' W 000°01'917.4
2017-Nov-19 05:00N 50°34' E 000°13'917.8
2017-Nov-19 04:30N 50°36' E 000°26'917.8
2017-Nov-19 04:00N 50°40' E 000°39'917.4
2017-Nov-19 03:30N 50°44' E 000°51'917.0
2017-Nov-19 03:00N 50°50' E 001°01'816.5
2017-Nov-19 02:30N 50°55' E 001°11'815.7
2017-Nov-19 02:00N 51°00' E 001°20'714.9
2017-Nov-19 01:30N 51°05' E 001°30'714.2
2017-Nov-19 01:00N 51°10' E 001°38'713.9
2017-Nov-19 00:30N 51°14' E 001°46'714.6
2017-Nov-19 00:00N 51°20' E 001°53'815.4
2017-Nov-18 23:31N 51°27' E 001°59'816.1
2017-Nov-18 23:00N 51°33' E 002°09'5915.8
2017-Nov-18 19:15N 52°03' E 003°31'415.8
2017-Nov-18 19:00N 52°03' E 003°37'815.7
2017-Nov-18 18:30N 52°04' E 003°50'4 7.5
2017-Nov-18 18:00N 52°02' E 003°56'611.6
2017-Nov-18 17:30N 51°59' E 004°04'2 4.0
2017-Nov-18 16:58N 51°57' E 004°03'0 0.2
2017-Nov-18 16:28N 51°57' E 004°03'0 0.0
2017-Nov-18 15:58N 51°57' E 004°03'0 0.0
2017-Nov-18 15:28N 51°57' E 004°03'0 0.0
2017-Nov-18 14:58N 51°57' E 004°03'0 0.0
2017-Nov-18 14:28N 51°57' E 004°03'0 0.0
2017-Nov-18 13:58N 51°57' E 004°03'0 0.0
2017-Nov-18 13:28N 51°57' E 004°03'0 0.0
2017-Nov-18 12:58N 51°57' E 004°03'0 0.0
2017-Nov-18 12:28N 51°57' E 004°03'0 0.0
2017-Nov-18 11:58N 51°57' E 004°03'0 0.0
2017-Nov-18 11:28N 51°57' E 004°03'0 0.0
2017-Nov-18 11:00N 51°57' E 004°03'1 2.2
2017-Nov-18 10:31N 51°58' E 004°05'2 4.0
2017-Nov-18 10:01N 51°59' E 004°02'0 0.0
2017-Nov-18 09:30N 51°59' E 004°02'0 0.0
2017-Nov-18 09:00N 51°59' E 004°02'0 0.0
2017-Nov-18 08:30N 51°59' E 004°02'0 0.0
2017-Nov-18 08:00N 51°59' E 004°02'0 0.0
2017-Nov-18 07:30N 51°59' E 004°02'0 0.0
2017-Nov-18 07:00N 51°59' E 004°02'0 0.0
2017-Nov-18 06:30N 51°59' E 004°02'0 0.0
2017-Nov-18 06:00N 51°59' E 004°02'0 0.0
2017-Nov-18 05:31N 51°59' E 004°02'0 0.0
2017-Nov-18 05:00N 51°59' E 004°02'1 1.6
2017-Nov-18 04:30N 51°59' E 004°00'1 2.7
2017-Nov-18 03:58N 51°57' E 003°60'0 0.0
2017-Nov-18 03:28N 51°57' E 003°60'0 0.0
2017-Nov-18 02:58N 51°57' E 003°60'0 0.0
2017-Nov-18 02:28N 51°57' E 003°60'0 0.0
2017-Nov-18 01:58N 51°57' E 003°60'0 0.0
2017-Nov-18 01:30N 51°57' E 003°60'0 0.8
2017-Nov-18 01:00N 51°57' E 003°60'3 5.6
2017-Nov-18 00:30N 51°58' E 004°04'3 6.3
2017-Nov-18 00:00N 51°58' E 004°09'611.9
2017-Nov-17 23:30N 51°54' E 004°17'510.0
2017-Nov-17 23:00N 51°54' E 004°25'1 1.5
2017-Nov-17 22:30N 51°53' E 004°26'0 0.0
2017-Nov-17 21:59N 51°53' E 004°26'0 0.0
2017-Nov-17 21:29N 51°53' E 004°26'0 0.0
2017-Nov-17 21:00N 51°53' E 004°26'0 0.0
2017-Nov-17 20:30N 51°53' E 004°26'0 0.0
2017-Nov-17 20:00N 51°53' E 004°26'0 0.0
2017-Nov-17 19:26N 51°53' E 004°26'0 0.0
2017-Nov-17 19:00N 51°53' E 004°26'0 0.0
2017-Nov-17 18:30N 51°53' E 004°26'0 0.0
2017-Nov-17 18:00N 51°53' E 004°26'0 0.0
2017-Nov-17 17:30N 51°53' E 004°26'0 0.0
2017-Nov-17 17:00N 51°53' E 004°26'0 0.0
2017-Nov-17 16:30N 51°53' E 004°26'0 0.0
2017-Nov-17 16:00N 51°53' E 004°26'0 0.0
2017-Nov-17 15:29N 51°53' E 004°26'0 0.0
2017-Nov-17 15:00N 51°53' E 004°26'0 0.0
2017-Nov-17 14:30N 51°53' E 004°26'0 0.3
2017-Nov-17 14:00N 51°53' E 004°26'0 0.0
2017-Nov-17 13:29N 51°53' E 004°26'0 0.0
2017-Nov-17 12:59N 51°53' E 004°26'0 0.1
2017-Nov-17 12:30N 51°53' E 004°26'1 2.8
2017-Nov-17 12:00N 51°54' E 004°24'1 2.1
2017-Nov-17 11:28N 51°53' E 004°25'0 0.0
2017-Nov-17 10:59N 51°53' E 004°25'0 0.0
2017-Nov-17 10:29N 51°53' E 004°25'0 0.0
2017-Nov-17 09:59N 51°53' E 004°25'0 0.0
2017-Nov-17 09:29N 51°53' E 004°25'0 0.0
2017-Nov-17 08:59N 51°53' E 004°25'0 0.0
2017-Nov-17 08:29N 51°53' E 004°25'0 0.0
2017-Nov-17 07:55N 51°53' E 004°25'0 0.0
2017-Nov-17 07:29N 51°53' E 004°25'0 0.0
2017-Nov-17 06:59N 51°53' E 004°25'0 0.0
2017-Nov-17 05:59N 51°53' E 004°25'0 0.0
2017-Nov-17 05:28N 51°53' E 004°25'0 0.0
2017-Nov-17 04:58N 51°53' E 004°25'0 0.0
2017-Nov-17 04:28N 51°53' E 004°25'0 0.0
2017-Nov-17 03:59N 51°53' E 004°25'0 0.0
2017-Nov-17 03:28N 51°53' E 004°25'0 0.0
2017-Nov-17 02:56N 51°53' E 004°25'0 0.1
2017-Nov-17 02:30N 51°53' E 004°25'3 5.9
2017-Nov-17 02:00N 51°54' E 004°21'3 6.2
2017-Nov-17 01:30N 51°51' E 004°22'4 8.6
2017-Nov-17 01:00N 51°50' E 004°29'4 8.0
2017-Nov-17 00:30N 51°49' E 004°35'4 7.3
2017-Nov-17 00:00N 51°45' E 004°38'4 8.0
2017-Nov-16 23:30N 51°42' E 004°35'1 1.2
2017-Nov-16 22:53N 51°41' E 004°36'0 0.0
2017-Nov-16 22:27N 51°41' E 004°36'0 0.0
2017-Nov-16 21:59N 51°41' E 004°36'0 0.0
2017-Nov-16 21:29N 51°41' E 004°36'0 0.0
2017-Nov-16 20:59N 51°41' E 004°36'0 0.0
2017-Nov-16 20:29N 51°41' E 004°36'0 0.0
2017-Nov-16 19:59N 51°41' E 004°36'0 0.0
2017-Nov-16 19:29N 51°41' E 004°36'0 0.0
2017-Nov-16 18:59N 51°41' E 004°36'0 0.0
2017-Nov-16 18:29N 51°41' E 004°36'0 0.0
2017-Nov-16 17:59N 51°41' E 004°36'0 0.0
2017-Nov-16 17:29N 51°41' E 004°36'0 0.0
2017-Nov-16 16:59N 51°41' E 004°36'0 0.0
2017-Nov-16 16:29N 51°41' E 004°36'0 0.0
2017-Nov-16 15:59N 51°41' E 004°36'0 0.0
2017-Nov-16 15:29N 51°41' E 004°36'0 0.0
2017-Nov-16 14:59N 51°41' E 004°36'0 0.5
2017-Nov-16 14:29N 51°41' E 004°36'0 0.0
2017-Nov-16 13:59N 51°41' E 004°36'0 0.0
2017-Nov-16 13:29N 51°41' E 004°36'0 0.0
2017-Nov-16 12:59N 51°41' E 004°36'0 0.0
2017-Nov-16 12:29N 51°41' E 004°36'0 0.0
2017-Nov-16 11:59N 51°41' E 004°36'0 0.0
2017-Nov-16 11:29N 51°41' E 004°36'0 0.0
2017-Nov-16 10:59N 51°41' E 004°36'0 0.0
2017-Nov-16 10:29N 51°41' E 004°36'0 0.0
2017-Nov-16 10:00N 51°41' E 004°36'1 1.4
2017-Nov-16 09:30N 51°41' E 004°35'2 4.6
2017-Nov-16 09:00N 51°43' E 004°37'4 8.7
2017-Nov-16 08:30N 51°48' E 004°37'4 7.8
2017-Nov-16 08:00N 51°50' E 004°32'4 8.9
2017-Nov-16 07:30N 51°51' E 004°25'3 6.9
2017-Nov-16 07:00N 51°52' E 004°20'4 8.4
2017-Nov-16 06:30N 51°55' E 004°15'611.9
2017-Nov-16 06:00N 51°58' E 004°07'713.5
2017-Nov-16 05:30N 52°00' E 003°57'611.5
2017-Nov-16 05:00N 52°00' E 003°47'814.9
2017-Nov-16 04:29N 51°58' E 003°36'4815.4
2017-Nov-16 01:21N 51°48' E 002°19'515.5
2017-Nov-16 01:01N 51°44' E 002°12'815.9
2017-Nov-16 00:30N 51°39' E 002°03'816.0
2017-Nov-16 00:00N 51°34' E 001°52'816.0
2017-Nov-15 23:30N 51°31' E 001°41'714.3
2017-Nov-15 23:00N 51°26' E 001°31'5 9.9
2017-Nov-15 22:31N 51°28' E 001°24'815.3
2017-Nov-15 22:00N 51°29' E 001°12'814.6
2017-Nov-15 21:29N 51°29' E 000°59'714.6
2017-Nov-15 21:01N 51°29' E 000°48'714.1
2017-Nov-15 20:30N 51°30' E 000°37'510.9
2017-Nov-15 20:00N 51°30' E 000°28'5 9.2
2017-Nov-15 19:31N 51°27' E 000°22'2 3.1
2017-Nov-15 19:00N 51°27' E 000°20'0 0.0
2017-Nov-15 18:30N 51°27' E 000°20'0 0.0
2017-Nov-15 18:01N 51°27' E 000°20'0 0.0
2017-Nov-15 17:30N 51°27' E 000°20'0 0.0
2017-Nov-15 17:00N 51°27' E 000°20'0 0.0
2017-Nov-15 16:31N 51°27' E 000°20'0 0.0
2017-Nov-15 16:01N 51°27' E 000°20'0 0.0
2017-Nov-15 15:31N 51°27' E 000°20'0 0.0
2017-Nov-15 15:00N 51°27' E 000°20'0 0.0
2017-Nov-15 14:30N 51°27' E 000°20'0 0.0
2017-Nov-15 14:01N 51°27' E 000°20'0 0.0
2017-Nov-15 13:30N 51°27' E 000°20'0 0.0
2017-Nov-15 13:01N 51°27' E 000°20'0 0.0
2017-Nov-15 12:31N 51°27' E 000°20'0 0.0
2017-Nov-15 12:00N 51°27' E 000°20'0 0.0
2017-Nov-15 11:30N 51°27' E 000°20'0 0.0
2017-Nov-15 11:01N 51°27' E 000°20'0 0.0
2017-Nov-15 10:30N 51°27' E 000°20'0 0.0
2017-Nov-15 10:00N 51°27' E 000°20'0 0.0
2017-Nov-15 09:31N 51°27' E 000°20'0 0.0
2017-Nov-15 09:00N 51°27' E 000°20'0 0.0
2017-Nov-15 08:30N 51°27' E 000°20'0 0.0
2017-Nov-15 08:01N 51°27' E 000°20'0 0.0
2017-Nov-15 07:31N 51°27' E 000°20'0 0.3
2017-Nov-15 07:00N 51°28' E 000°20'3 6.5
2017-Nov-15 06:30N 51°27' E 000°25'510.9
2017-Nov-15 06:00N 51°30' E 000°32'815.6
2017-Nov-15 05:30N 51°30' E 000°45'815.4
2017-Nov-15 05:00N 51°29' E 000°57'815.6
2017-Nov-15 04:30N 51°33' E 001°08'714.8
2017-Nov-15 04:00N 51°36' E 001°18'510.5
2017-Nov-15 03:30N 51°34' E 001°26'714.3
2017-Nov-15 03:00N 51°27' E 001°31'5 9.7
2017-Nov-15 02:30N 51°24' E 001°35'713.3
2017-Nov-15 02:00N 51°17' E 001°39'714.6
2017-Nov-15 01:30N 51°10' E 001°38'611.3
2017-Nov-15 01:00N 51°04' E 001°37'815.0
2017-Nov-15 00:30N 50°59' E 001°29'713.7
2017-Nov-15 00:00N 50°53' E 001°24'714.0
2017-Nov-14 23:31N 50°46' E 001°21'813.6
2017-Nov-14 22:56N 50°40' E 001°14'1015.2
2017-Nov-14 22:15N 50°33' E 001°01'415.3
2017-Nov-14 22:00N 50°31' E 000°56'815.4
2017-Nov-14 21:28N 50°28' E 000°44'715.4
2017-Nov-14 20:59N 50°26' E 000°33'715.4
2017-Nov-14 20:30N 50°23' E 000°22'815.4
2017-Nov-14 20:00N 50°21' E 000°10'815.5
2017-Nov-14 19:30N 50°19' W 000°01'3415.8
2017-Nov-14 17:22N 50°09' W 000°52'618.4
2017-Nov-14 17:00N 50°07' W 001°02'918.5
2017-Nov-14 16:30N 50°05' W 001°16'1019.2
2017-Nov-14 16:01N 50°02' W 001°30'1019.1
2017-Nov-14 15:30N 49°59' W 001°44'918.6
2017-Nov-14 15:00N 49°57' W 001°58'2817.3
2017-Nov-14 13:25N 49°50' W 002°40'716.7
2017-Nov-14 13:00N 49°49' W 002°50'916.5
2017-Nov-14 12:28N 49°45' W 003°03'816.4
2017-Nov-14 12:00N 49°41' W 003°13'1116.4
2017-Nov-14 11:19N 49°36' W 003°28'616.4
2017-Nov-14 10:55N 49°32' W 003°37'916.3
2017-Nov-14 10:23N 49°28' W 003°49'616.3
2017-Nov-14 10:00N 49°25' W 003°57'916.3
2017-Nov-14 09:25N 49°21' W 004°10'813.7
2017-Nov-14 08:51N 49°17' W 004°20'2 1.1
2017-Nov-14 07:22N 49°15' W 004°21'612.6
2017-Nov-14 06:55N 49°12' W 004°28'715.6
2017-Nov-14 06:29N 49°09' W 004°37'915.8
2017-Nov-14 05:56N 49°04' W 004°48'715.8
2017-Nov-14 05:29N 49°00' W 004°58'815.8
2017-Nov-14 04:59N 48°56' W 005°08'916.0
2017-Nov-14 04:25N 48°51' W 005°19'716.2
2017-Nov-14 04:00N 48°48' W 005°28'915.7
2017-Nov-14 03:26N 48°42' W 005°39'816.5
2017-Nov-14 02:59N 48°36' W 005°44'916.7
2017-Nov-14 02:26N 48°28' W 005°51'716.6
2017-Nov-14 02:00N 48°22' W 005°57'1016.8
2017-Nov-14 01:22N 48°12' W 006°04'616.8
2017-Nov-14 01:00N 48°07' W 006°08'917.0
2017-Nov-14 00:28N 47°59' W 006°14'1017.2
2017-Nov-13 23:53N 47°49' W 006°21'817.4
2017-Nov-13 23:25N 47°42' W 006°26'817.3
2017-Nov-13 22:59N 47°36' W 006°31'917.2
2017-Nov-13 22:29N 47°28' W 006°37'916.6
2017-Nov-13 21:58N 47°21' W 006°43'37514.6
2017-Nov-12 20:14N 41°17' W 008°50'415.9
2017-Nov-12 20:00N 41°14' W 008°47'510.0
2017-Nov-12 19:30N 41°10' W 008°42'1 2.9
2017-Nov-12 19:00N 41°12' W 008°41'0 0.0
2017-Nov-12 18:30N 41°12' W 008°41'0 0.0
2017-Nov-12 18:00N 41°12' W 008°41'0 0.0
2017-Nov-12 17:30N 41°12' W 008°41'0 0.0
2017-Nov-12 17:00N 41°12' W 008°41'0 0.0
2017-Nov-12 16:30N 41°12' W 008°41'0 0.0
2017-Nov-12 15:59N 41°12' W 008°41'0 0.0
2017-Nov-12 15:30N 41°12' W 008°41'0 0.0
2017-Nov-12 15:00N 41°12' W 008°41'0 0.0
2017-Nov-12 14:30N 41°12' W 008°41'0 0.0
2017-Nov-12 13:59N 41°12' W 008°41'0 0.0
2017-Nov-12 13:29N 41°12' W 008°41'0 0.0
2017-Nov-12 13:00N 41°12' W 008°41'0 0.3
2017-Nov-12 12:30N 41°12' W 008°41'2 3.6
2017-Nov-12 12:00N 41°10' W 008°42'612.5
2017-Nov-12 11:30N 41°05' W 008°47'8515.5
2017-Nov-12 06:01N 39°48' W 009°36'015.3
2017-Nov-12 06:00N 39°48' W 009°36'1515.0
2017-Nov-12 04:59N 39°34' W 009°44'714.5
2017-Nov-12 04:30N 39°28' W 009°47'715.0
2017-Nov-12 04:00N 39°20' W 009°46'815.3
2017-Nov-12 03:30N 39°13' W 009°44'815.2
2017-Nov-12 03:00N 39°05' W 009°43'815.2
2017-Nov-12 02:30N 38°57' W 009°42'815.2
2017-Nov-12 02:00N 38°50' W 009°42'815.1
2017-Nov-12 01:30N 38°42' W 009°42'713.5
2017-Nov-12 01:00N 38°38' W 009°35'815.9
2017-Nov-12 00:30N 38°36' W 009°25'815.2
2017-Nov-12 00:00N 38°41' W 009°17'612.2
2017-Nov-11 23:30N 38°42' W 009°09'3 5.3
2017-Nov-11 23:01N 38°43' W 009°07'0 0.0
2017-Nov-11 22:21N 38°43' W 009°07'0 0.0
2017-Nov-11 21:57N 38°43' W 009°07'0 0.0
2017-Nov-11 21:21N 38°43' W 009°07'0 0.0
2017-Nov-11 21:00N 38°43' W 009°07'0 0.0
2017-Nov-11 20:30N 38°43' W 009°07'0 0.0
2017-Nov-11 20:00N 38°43' W 009°07'0 0.0
2017-Nov-11 19:30N 38°43' W 009°07'0 0.0
2017-Nov-11 19:00N 38°43' W 009°07'0 0.0
2017-Nov-11 18:24N 38°43' W 009°07'0 0.0
2017-Nov-11 17:57N 38°43' W 009°07'0 0.0
2017-Nov-11 17:27N 38°43' W 009°07'0 0.0
2017-Nov-11 17:00N 38°43' W 009°07'0 0.0
2017-Nov-11 16:24N 38°43' W 009°07'0 0.0
2017-Nov-11 15:57N 38°43' W 009°07'0 0.0
2017-Nov-11 15:30N 38°43' W 009°07'0 0.0
2017-Nov-11 15:00N 38°43' W 009°07'0 0.0
2017-Nov-11 14:24N 38°43' W 009°07'0 0.0
2017-Nov-11 14:00N 38°43' W 009°07'0 0.0
2017-Nov-11 13:24N 38°43' W 009°07'0 0.0
2017-Nov-11 12:57N 38°43' W 009°07'0 0.0
2017-Nov-11 12:30N 38°43' W 009°07'0 0.0
2017-Nov-11 11:57N 38°43' W 009°07'0 0.0
2017-Nov-11 11:30N 38°43' W 009°07'0 0.0
2017-Nov-11 10:57N 38°43' W 009°07'0 0.0
2017-Nov-11 10:30N 38°43' W 009°07'0 0.0
2017-Nov-11 09:57N 38°43' W 009°07'0 0.0
2017-Nov-11 09:30N 38°43' W 009°07'0 0.0
2017-Nov-11 09:00N 38°43' W 009°07'0 0.0
2017-Nov-11 08:21N 38°43' W 009°07'0 0.0
2017-Nov-11 08:00N 38°43' W 009°07'1 1.6
2017-Nov-11 07:30N 38°43' W 009°07'5 9.5
2017-Nov-11 07:00N 38°41' W 009°13'5 9.2
2017-Nov-11 06:30N 38°40' W 009°18'611.7
2017-Nov-11 06:00N 38°35' W 009°22'713.3
2017-Nov-11 05:30N 38°29' W 009°19'612.7
2017-Nov-11 05:00N 38°23' W 009°16'611.3
2017-Nov-11 04:30N 38°22' W 009°09'713.7
2017-Nov-11 04:00N 38°25' W 009°01'612.6
2017-Nov-11 03:30N 38°30' W 008°55'3 5.3
2017-Nov-11 02:59N 38°31' W 008°52'0 0.0
2017-Nov-11 02:29N 38°31' W 008°52'0 0.0
2017-Nov-11 01:59N 38°31' W 008°52'0 0.0
2017-Nov-11 01:29N 38°31' W 008°52'0 0.0
2017-Nov-11 00:59N 38°31' W 008°52'0 0.0
2017-Nov-11 00:26N 38°31' W 008°52'0 0.0
2017-Nov-10 23:59N 38°31' W 008°52'0 0.0
2017-Nov-10 23:29N 38°31' W 008°52'0 0.0
2017-Nov-10 22:59N 38°31' W 008°52'0 0.0
2017-Nov-10 22:29N 38°31' W 008°52'0 0.0
2017-Nov-10 21:59N 38°31' W 008°52'0 0.0
2017-Nov-10 21:29N 38°31' W 008°52'0 0.0
2017-Nov-10 20:59N 38°31' W 008°52'0 0.0
2017-Nov-10 20:26N 38°31' W 008°52'0 0.0
2017-Nov-10 19:59N 38°31' W 008°52'0 0.0
2017-Nov-10 19:29N 38°31' W 008°52'0 0.0
2017-Nov-10 18:59N 38°31' W 008°52'0 0.0
2017-Nov-10 18:29N 38°31' W 008°52'0 0.0
2017-Nov-10 17:59N 38°31' W 008°52'0 0.0
2017-Nov-10 17:23N 38°31' W 008°52'0 0.0
2017-Nov-10 16:59N 38°31' W 008°52'0 0.0
2017-Nov-10 16:29N 38°31' W 008°52'0 0.0
2017-Nov-10 15:59N 38°31' W 008°52'0 0.0
2017-Nov-10 15:29N 38°31' W 008°52'0 0.0
2017-Nov-10 14:59N 38°31' W 008°52'0 0.0
2017-Nov-10 14:29N 38°31' W 008°52'0 0.0
2017-Nov-10 13:59N 38°31' W 008°52'0 0.0
2017-Nov-10 13:29N 38°31' W 008°52'0 1.0
2017-Nov-10 13:01N 38°31' W 008°53'510.9
2017-Nov-10 12:30N 38°27' W 008°58'612.4
2017-Nov-10 12:00N 38°23' W 009°04'815.6
2017-Nov-10 11:30N 38°21' W 009°14'816.4
2017-Nov-10 11:00N 38°26' W 009°22'816.3
2017-Nov-10 10:30N 38°31' W 009°31'816.1
2017-Nov-10 10:00N 38°36' W 009°38'816.2
2017-Nov-10 09:30N 38°44' W 009°43'918.0
2017-Nov-10 09:00N 38°53' W 009°44'917.8
2017-Nov-10 08:30N 39°01' W 009°44'917.5
2017-Nov-10 08:00N 39°10' W 009°46'917.2
2017-Nov-10 07:30N 39°19' W 009°46'917.6
2017-Nov-10 07:00N 39°28' W 009°46'4017.4
2017-Nov-10 04:44N 40°04' W 009°26'417.3
2017-Nov-10 04:30N 40°08' W 009°24'917.4
2017-Nov-10 04:00N 40°16' W 009°19'4617.8
2017-Nov-10 01:24N 40°57' W 008°51'717.4
2017-Nov-10 01:00N 41°03' W 008°47'714.5
2017-Nov-10 00:31N 41°09' W 008°43'  
Track history (hours):
 
Tides and Currents Weather Stations Pressure Air Temp Water Temp Dewpoint Dewpoint Depression Visibility Wind Speed Wind Dir Waves Ship Positions

OOCL St Petersburg

Last reported at 2017-Nov-20 00:18 UTC. Time now 2017-Nov-21 23:22 UTC.
Position N 47°57' W 006°33'.

MMSI: 229583784.

Date/timePositionNaut miles runAvg speedWind from/ knotsBaromVisibWave heightAir tempDewpointWater temp
2017-Nov-20 00:18N 47°57' W 006°33'616.4
2017-Nov-19 23:58N 48°02' W 006°29'1417.0
2017-Nov-19 23:09N 48°14' W 006°19'317.5
2017-Nov-19 22:59N 48°17' W 006°17'817.5
2017-Nov-19 22:30N 48°24' W 006°11'918.0
2017-Nov-19 21:58N 48°32' W 006°04'818.0
2017-Nov-19 21:30N 48°40' W 005°59'918.1
2017-Nov-19 21:00N 48°48' W 005°52'917.5
2017-Nov-19 20:29N 48°55' W 005°44'917.4
2017-Nov-19 20:00N 48°59' W 005°32'1116.9
2017-Nov-19 19:20N 49°05' W 005°18'616.4
2017-Nov-19 18:58N 49°08' W 005°10'816.0
2017-Nov-19 18:29N 49°12' W 004°60'815.7
2017-Nov-19 17:58N 49°16' W 004°49'1515.2
2017-Nov-19 16:58N 49°23' W 004°28'2215.6
2017-Nov-19 15:32N 49°34' W 003°58'1617.0
2017-Nov-19 14:34N 49°43' W 003°37'718.0
2017-Nov-19 14:12N 49°46' W 003°28'418.3
2017-Nov-19 14:00N 49°48' W 003°23'918.8
2017-Nov-19 13:31N 49°53' W 003°11'1019.0
2017-Nov-19 13:00N 49°58' W 002°58'918.7
2017-Nov-19 12:30N 50°02' W 002°45'2517.8
2017-Nov-19 11:05N 50°08' W 002°07'116.5
2017-Nov-19 11:00N 50°09' W 002°05'816.1
2017-Nov-19 10:30N 50°11' W 001°53'815.2
2017-Nov-19 10:00N 50°13' W 001°41'714.6
2017-Nov-19 09:30N 50°15' W 001°30'714.0
2017-Nov-19 09:01N 50°17' W 001°20'2013.9
2017-Nov-19 07:33N 50°23' W 000°50'114.7
2017-Nov-19 07:29N 50°23' W 000°48'1415.1
2017-Nov-19 06:35N 50°26' W 000°27'115.8
2017-Nov-19 06:30N 50°26' W 000°25'816.3
2017-Nov-19 06:00N 50°29' W 000°13'917.0
2017-Nov-19 05:30N 50°31' W 000°01'917.4
2017-Nov-19 05:00N 50°34' E 000°13'917.8
2017-Nov-19 04:30N 50°36' E 000°26'917.8
2017-Nov-19 04:00N 50°40' E 000°39'917.4
2017-Nov-19 03:30N 50°44' E 000°51'917.0
2017-Nov-19 03:00N 50°50' E 001°01'816.5
2017-Nov-19 02:30N 50°55' E 001°11'815.7
2017-Nov-19 02:00N 51°00' E 001°20'714.9
2017-Nov-19 01:30N 51°05' E 001°30'714.2
2017-Nov-19 01:00N 51°10' E 001°38'713.9
2017-Nov-19 00:30N 51°14' E 001°46'714.6
2017-Nov-19 00:00N 51°20' E 001°53'815.4
2017-Nov-18 23:31N 51°27' E 001°59'816.1
2017-Nov-18 23:00N 51°33' E 002°09'5915.8
2017-Nov-18 19:15N 52°03' E 003°31'415.8
2017-Nov-18 19:00N 52°03' E 003°37'815.7
2017-Nov-18 18:30N 52°04' E 003°50'4 7.5
2017-Nov-18 18:00N 52°02' E 003°56'611.6
2017-Nov-18 17:30N 51°59' E 004°04'2 4.0
2017-Nov-18 16:58N 51°57' E 004°03'0 0.2
2017-Nov-18 16:28N 51°57' E 004°03'0 0.0
2017-Nov-18 15:58N 51°57' E 004°03'0 0.0
2017-Nov-18 15:28N 51°57' E 004°03'0 0.0
2017-Nov-18 14:58N 51°57' E 004°03'0 0.0
2017-Nov-18 14:28N 51°57' E 004°03'0 0.0
2017-Nov-18 13:58N 51°57' E 004°03'0 0.0
2017-Nov-18 13:28N 51°57' E 004°03'0 0.0
2017-Nov-18 12:58N 51°57' E 004°03'0 0.0
2017-Nov-18 12:28N 51°57' E 004°03'0 0.0
2017-Nov-18 11:58N 51°57' E 004°03'0 0.0
2017-Nov-18 11:28N 51°57' E 004°03'0 0.0
2017-Nov-18 11:00N 51°57' E 004°03'1 2.2
2017-Nov-18 10:31N 51°58' E 004°05'2 4.0
2017-Nov-18 10:01N 51°59' E 004°02'0 0.0
2017-Nov-18 09:30N 51°59' E 004°02'0 0.0
2017-Nov-18 09:00N 51°59' E 004°02'0 0.0
2017-Nov-18 08:30N 51°59' E 004°02'0 0.0
2017-Nov-18 08:00N 51°59' E 004°02'0 0.0
2017-Nov-18 07:30N 51°59' E 004°02'0 0.0
2017-Nov-18 07:00N 51°59' E 004°02'0 0.0
2017-Nov-18 06:30N 51°59' E 004°02'0 0.0
2017-Nov-18 06:00N 51°59' E 004°02'0 0.0
2017-Nov-18 05:31N 51°59' E 004°02'0 0.0
2017-Nov-18 05:00N 51°59' E 004°02'1 1.6
2017-Nov-18 04:30N 51°59' E 004°00'1 2.7
2017-Nov-18 03:58N 51°57' E 003°60'0 0.0
2017-Nov-18 03:28N 51°57' E 003°60'0 0.0
2017-Nov-18 02:58N 51°57' E 003°60'0 0.0
2017-Nov-18 02:28N 51°57' E 003°60'0 0.0
2017-Nov-18 01:58N 51°57' E 003°60'0 0.0
2017-Nov-18 01:30N 51°57' E 003°60'0 0.8
2017-Nov-18 01:00N 51°57' E 003°60'3 5.6
2017-Nov-18 00:30N 51°58' E 004°04'3 6.3
2017-Nov-18 00:00N 51°58' E 004°09'611.9
2017-Nov-17 23:30N 51°54' E 004°17'510.0
2017-Nov-17 23:00N 51°54' E 004°25'1 1.5
2017-Nov-17 22:30N 51°53' E 004°26'0 0.0
2017-Nov-17 21:59N 51°53' E 004°26'0 0.0
2017-Nov-17 21:29N 51°53' E 004°26'0 0.0
2017-Nov-17 21:00N 51°53' E 004°26'0 0.0
2017-Nov-17 20:30N 51°53' E 004°26'0 0.0
2017-Nov-17 20:00N 51°53' E 004°26'0 0.0
2017-Nov-17 19:26N 51°53' E 004°26'0 0.0
2017-Nov-17 19:00N 51°53' E 004°26'0 0.0
2017-Nov-17 18:30N 51°53' E 004°26'0 0.0
2017-Nov-17 18:00N 51°53' E 004°26'0 0.0
2017-Nov-17 17:30N 51°53' E 004°26'0 0.0
2017-Nov-17 17:00N 51°53' E 004°26'0 0.0
2017-Nov-17 16:30N 51°53' E 004°26'0 0.0
2017-Nov-17 16:00N 51°53' E 004°26'0 0.0
2017-Nov-17 15:29N 51°53' E 004°26'0 0.0
2017-Nov-17 15:00N 51°53' E 004°26'0 0.0
2017-Nov-17 14:30N 51°53' E 004°26'0 0.3
2017-Nov-17 14:00N 51°53' E 004°26'0 0.0
2017-Nov-17 13:29N 51°53' E 004°26'0 0.0
2017-Nov-17 12:59N 51°53' E 004°26'0 0.1
2017-Nov-17 12:30N 51°53' E 004°26'1 2.8
2017-Nov-17 12:00N 51°54' E 004°24'1 2.1
2017-Nov-17 11:28N 51°53' E 004°25'0 0.0
2017-Nov-17 10:59N 51°53' E 004°25'0 0.0
2017-Nov-17 10:29N 51°53' E 004°25'0 0.0
2017-Nov-17 09:59N 51°53' E 004°25'0 0.0
2017-Nov-17 09:29N 51°53' E 004°25'0 0.0
2017-Nov-17 08:59N 51°53' E 004°25'0 0.0
2017-Nov-17 08:29N 51°53' E 004°25'0 0.0
2017-Nov-17 07:55N 51°53' E 004°25'0 0.0
2017-Nov-17 07:29N 51°53' E 004°25'0 0.0
2017-Nov-17 06:59N 51°53' E 004°25'0 0.0
2017-Nov-17 05:59N 51°53' E 004°25'0 0.0
2017-Nov-17 05:28N 51°53' E 004°25'0 0.0
2017-Nov-17 04:58N 51°53' E 004°25'0 0.0
2017-Nov-17 04:28N 51°53' E 004°25'0 0.0
2017-Nov-17 03:59N 51°53' E 004°25'0 0.0
2017-Nov-17 03:28N 51°53' E 004°25'0 0.0
2017-Nov-17 02:56N 51°53' E 004°25'0 0.1
2017-Nov-17 02:30N 51°53' E 004°25'3 5.9
2017-Nov-17 02:00N 51°54' E 004°21'3 6.2
2017-Nov-17 01:30N 51°51' E 004°22'4 8.6
2017-Nov-17 01:00N 51°50' E 004°29'4 8.0
2017-Nov-17 00:30N 51°49' E 004°35'4 7.3
2017-Nov-17 00:00N 51°45' E 004°38'4 8.0
2017-Nov-16 23:30N 51°42' E 004°35'1 1.2
2017-Nov-16 22:53N 51°41' E 004°36'0 0.0
2017-Nov-16 22:27N 51°41' E 004°36'0 0.0
2017-Nov-16 21:59N 51°41' E 004°36'0 0.0
2017-Nov-16 21:29N 51°41' E 004°36'0 0.0
2017-Nov-16 20:59N 51°41' E 004°36'0 0.0
2017-Nov-16 20:29N 51°41' E 004°36'0 0.0
2017-Nov-16 19:59N 51°41' E 004°36'0 0.0
2017-Nov-16 19:29N 51°41' E 004°36'0 0.0
2017-Nov-16 18:59N 51°41' E 004°36'0 0.0
2017-Nov-16 18:29N 51°41' E 004°36'0 0.0
2017-Nov-16 17:59N 51°41' E 004°36'0 0.0
2017-Nov-16 17:29N 51°41' E 004°36'0 0.0
2017-Nov-16 16:59N 51°41' E 004°36'0 0.0
2017-Nov-16 16:29N 51°41' E 004°36'0 0.0
2017-Nov-16 15:59N 51°41' E 004°36'0 0.0
2017-Nov-16 15:29N 51°41' E 004°36'0 0.0
2017-Nov-16 14:59N 51°41' E 004°36'0 0.5
2017-Nov-16 14:29N 51°41' E 004°36'0 0.0
2017-Nov-16 13:59N 51°41' E 004°36'0 0.0
2017-Nov-16 13:29N 51°41' E 004°36'0 0.0
2017-Nov-16 12:59N 51°41' E 004°36'0 0.0
2017-Nov-16 12:29N 51°41' E 004°36'0 0.0
2017-Nov-16 11:59N 51°41' E 004°36'0 0.0
2017-Nov-16 11:29N 51°41' E 004°36'0 0.0
2017-Nov-16 10:59N 51°41' E 004°36'0 0.0
2017-Nov-16 10:29N 51°41' E 004°36'0 0.0
2017-Nov-16 10:00N 51°41' E 004°36'1 1.4
2017-Nov-16 09:30N 51°41' E 004°35'2 4.6
2017-Nov-16 09:00N 51°43' E 004°37'4 8.7
2017-Nov-16 08:30N 51°48' E 004°37'4 7.8
2017-Nov-16 08:00N 51°50' E 004°32'4 8.9
2017-Nov-16 07:30N 51°51' E 004°25'3 6.9
2017-Nov-16 07:00N 51°52' E 004°20'4 8.4
2017-Nov-16 06:30N 51°55' E 004°15'611.9
2017-Nov-16 06:00N 51°58' E 004°07'713.5
2017-Nov-16 05:30N 52°00' E 003°57'611.5
2017-Nov-16 05:00N 52°00' E 003°47'814.9
2017-Nov-16 04:29N 51°58' E 003°36'4815.4
2017-Nov-16 01:21N 51°48' E 002°19'515.5
2017-Nov-16 01:01N 51°44' E 002°12'815.9
2017-Nov-16 00:30N 51°39' E 002°03'816.0
2017-Nov-16 00:00N 51°34' E 001°52'816.0
2017-Nov-15 23:30N 51°31' E 001°41'714.3
2017-Nov-15 23:00N 51°26' E 001°31'5 9.9
2017-Nov-15 22:31N 51°28' E 001°24'815.3
2017-Nov-15 22:00N 51°29' E 001°12'814.6
2017-Nov-15 21:29N 51°29' E 000°59'714.6
2017-Nov-15 21:01N 51°29' E 000°48'714.1
2017-Nov-15 20:30N 51°30' E 000°37'510.9
2017-Nov-15 20:00N 51°30' E 000°28'5 9.2
2017-Nov-15 19:31N 51°27' E 000°22'2 3.1
2017-Nov-15 19:00N 51°27' E 000°20'0 0.0
2017-Nov-15 18:30N 51°27' E 000°20'0 0.0
2017-Nov-15 18:01N 51°27' E 000°20'0 0.0
2017-Nov-15 17:30N 51°27' E 000°20'0 0.0
2017-Nov-15 17:00N 51°27' E 000°20'0 0.0
2017-Nov-15 16:31N 51°27' E 000°20'0 0.0
2017-Nov-15 16:01N 51°27' E 000°20'0 0.0
2017-Nov-15 15:31N 51°27' E 000°20'0 0.0
2017-Nov-15 15:00N 51°27' E 000°20'0 0.0
2017-Nov-15 14:30N 51°27' E 000°20'0 0.0
2017-Nov-15 14:01N 51°27' E 000°20'0 0.0
2017-Nov-15 13:30N 51°27' E 000°20'0 0.0
2017-Nov-15 13:01N 51°27' E 000°20'0 0.0
2017-Nov-15 12:31N 51°27' E 000°20'0 0.0
2017-Nov-15 12:00N 51°27' E 000°20'0 0.0
2017-Nov-15 11:30N 51°27' E 000°20'0 0.0
2017-Nov-15 11:01N 51°27' E 000°20'0 0.0
2017-Nov-15 10:30N 51°27' E 000°20'0 0.0
2017-Nov-15 10:00N 51°27' E 000°20'0 0.0
2017-Nov-15 09:31N 51°27' E 000°20'0 0.0
2017-Nov-15 09:00N 51°27' E 000°20'0 0.0
2017-Nov-15 08:30N 51°27' E 000°20'0 0.0
2017-Nov-15 08:01N 51°27' E 000°20'0 0.0
2017-Nov-15 07:31N 51°27' E 000°20'0 0.3
2017-Nov-15 07:00N 51°28' E 000°20'3 6.5
2017-Nov-15 06:30N 51°27' E 000°25'510.9
2017-Nov-15 06:00N 51°30' E 000°32'815.6
2017-Nov-15 05:30N 51°30' E 000°45'815.4
2017-Nov-15 05:00N 51°29' E 000°57'815.6
2017-Nov-15 04:30N 51°33' E 001°08'714.8
2017-Nov-15 04:00N 51°36' E 001°18'510.5
2017-Nov-15 03:30N 51°34' E 001°26'714.3
2017-Nov-15 03:00N 51°27' E 001°31'5 9.7
2017-Nov-15 02:30N 51°24' E 001°35'713.3
2017-Nov-15 02:00N 51°17' E 001°39'714.6
2017-Nov-15 01:30N 51°10' E 001°38'611.3
2017-Nov-15 01:00N 51°04' E 001°37'815.0
2017-Nov-15 00:30N 50°59' E 001°29'713.7
2017-Nov-15 00:00N 50°53' E 001°24'714.0
2017-Nov-14 23:31N 50°46' E 001°21'813.6
2017-Nov-14 22:56N 50°40' E 001°14'1015.2
2017-Nov-14 22:15N 50°33' E 001°01'415.3
2017-Nov-14 22:00N 50°31' E 000°56'815.4
2017-Nov-14 21:28N 50°28' E 000°44'715.4
2017-Nov-14 20:59N 50°26' E 000°33'715.4
2017-Nov-14 20:30N 50°23' E 000°22'815.4
2017-Nov-14 20:00N 50°21' E 000°10'815.5
2017-Nov-14 19:30N 50°19' W 000°01'3415.8
2017-Nov-14 17:22N 50°09' W 000°52'618.4
2017-Nov-14 17:00N 50°07' W 001°02'918.5
2017-Nov-14 16:30N 50°05' W 001°16'1019.2
2017-Nov-14 16:01N 50°02' W 001°30'1019.1
2017-Nov-14 15:30N 49°59' W 001°44'918.6
2017-Nov-14 15:00N 49°57' W 001°58'2817.3
2017-Nov-14 13:25N 49°50' W 002°40'716.7
2017-Nov-14 13:00N 49°49' W 002°50'916.5
2017-Nov-14 12:28N 49°45' W 003°03'816.4
2017-Nov-14 12:00N 49°41' W 003°13'1116.4
2017-Nov-14 11:19N 49°36' W 003°28'616.4
2017-Nov-14 10:55N 49°32' W 003°37'916.3
2017-Nov-14 10:23N 49°28' W 003°49'616.3
2017-Nov-14 10:00N 49°25' W 003°57'916.3
2017-Nov-14 09:25N 49°21' W 004°10'813.7
2017-Nov-14 08:51N 49°17' W 004°20'2 1.1
2017-Nov-14 07:22N 49°15' W 004°21'612.6
2017-Nov-14 06:55N 49°12' W 004°28'715.6
2017-Nov-14 06:29N 49°09' W 004°37'915.8
2017-Nov-14 05:56N 49°04' W 004°48'715.8
2017-Nov-14 05:29N 49°00' W 004°58'815.8
2017-Nov-14 04:59N 48°56' W 005°08'916.0
2017-Nov-14 04:25N 48°51' W 005°19'716.2
2017-Nov-14 04:00N 48°48' W 005°28'915.7
2017-Nov-14 03:26N 48°42' W 005°39'816.5
2017-Nov-14 02:59N 48°36' W 005°44'916.7
2017-Nov-14 02:26N 48°28' W 005°51'716.6
2017-Nov-14 02:00N 48°22' W 005°57'1016.8
2017-Nov-14 01:22N 48°12' W 006°04'616.8
2017-Nov-14 01:00N 48°07' W 006°08'917.0
2017-Nov-14 00:28N 47°59' W 006°14'1017.2
2017-Nov-13 23:53N 47°49' W 006°21'817.4
2017-Nov-13 23:25N 47°42' W 006°26'817.3
2017-Nov-13 22:59N 47°36' W 006°31'917.2
2017-Nov-13 22:29N 47°28' W 006°37'916.6
2017-Nov-13 21:58N 47°21' W 006°43'37514.6
2017-Nov-12 20:14N 41°17' W 008°50'415.9
2017-Nov-12 20:00N 41°14' W 008°47'510.0
2017-Nov-12 19:30N 41°10' W 008°42'1 2.9
2017-Nov-12 19:00N 41°12' W 008°41'0 0.0
2017-Nov-12 18:30N 41°12' W 008°41'0 0.0
2017-Nov-12 18:00N 41°12' W 008°41'0 0.0
2017-Nov-12 17:30N 41°12' W 008°41'0 0.0
2017-Nov-12 17:00N 41°12' W 008°41'0 0.0
2017-Nov-12 16:30N 41°12' W 008°41'0 0.0
2017-Nov-12 15:59N 41°12' W 008°41'0 0.0
2017-Nov-12 15:30N 41°12' W 008°41'0 0.0
2017-Nov-12 15:00N 41°12' W 008°41'0 0.0
2017-Nov-12 14:30N 41°12' W 008°41'0 0.0
2017-Nov-12 13:59N 41°12' W 008°41'0 0.0
2017-Nov-12 13:29N 41°12' W 008°41'0 0.0
2017-Nov-12 13:00N 41°12' W 008°41'0 0.3
2017-Nov-12 12:30N 41°12' W 008°41'2 3.6
2017-Nov-12 12:00N 41°10' W 008°42'612.5
2017-Nov-12 11:30N 41°05' W 008°47'8515.5
2017-Nov-12 06:01N 39°48' W 009°36'015.3
2017-Nov-12 06:00N 39°48' W 009°36'1515.0
2017-Nov-12 04:59N 39°34' W 009°44'714.5
2017-Nov-12 04:30N 39°28' W 009°47'715.0
2017-Nov-12 04:00N 39°20' W 009°46'815.3
2017-Nov-12 03:30N 39°13' W 009°44'815.2
2017-Nov-12 03:00N 39°05' W 009°43'815.2
2017-Nov-12 02:30N 38°57' W 009°42'815.2
2017-Nov-12 02:00N 38°50' W 009°42'815.1
2017-Nov-12 01:30N 38°42' W 009°42'713.5
2017-Nov-12 01:00N 38°38' W 009°35'815.9
2017-Nov-12 00:30N 38°36' W 009°25'815.2
2017-Nov-12 00:00N 38°41' W 009°17'612.2
2017-Nov-11 23:30N 38°42' W 009°09'3 5.3
2017-Nov-11 23:01N 38°43' W 009°07'0 0.0
2017-Nov-11 22:21N 38°43' W 009°07'0 0.0
2017-Nov-11 21:57N 38°43' W 009°07'0 0.0
2017-Nov-11 21:21N 38°43' W 009°07'0 0.0
2017-Nov-11 21:00N 38°43' W 009°07'0 0.0
2017-Nov-11 20:30N 38°43' W 009°07'0 0.0
2017-Nov-11 20:00N 38°43' W 009°07'0 0.0
2017-Nov-11 19:30N 38°43' W 009°07'0 0.0
2017-Nov-11 19:00N 38°43' W 009°07'0 0.0
2017-Nov-11 18:24N 38°43' W 009°07'0 0.0
2017-Nov-11 17:57N 38°43' W 009°07'0 0.0
2017-Nov-11 17:27N 38°43' W 009°07'0 0.0
2017-Nov-11 17:00N 38°43' W 009°07'0 0.0
2017-Nov-11 16:24N 38°43' W 009°07'0 0.0
2017-Nov-11 15:57N 38°43' W 009°07'0 0.0
2017-Nov-11 15:30N 38°43' W 009°07'0 0.0
2017-Nov-11 15:00N 38°43' W 009°07'0 0.0
2017-Nov-11 14:24N 38°43' W 009°07'0 0.0
2017-Nov-11 14:00N 38°43' W 009°07'0 0.0
2017-Nov-11 13:24N 38°43' W 009°07'0 0.0
2017-Nov-11 12:57N 38°43' W 009°07'0 0.0
2017-Nov-11 12:30N 38°43' W 009°07'0 0.0
2017-Nov-11 11:57N 38°43' W 009°07'0 0.0
2017-Nov-11 11:30N 38°43' W 009°07'0 0.0
2017-Nov-11 10:57N 38°43' W 009°07'0 0.0
2017-Nov-11 10:30N 38°43' W 009°07'0 0.0
2017-Nov-11 09:57N 38°43' W 009°07'0 0.0
2017-Nov-11 09:30N 38°43' W 009°07'0 0.0
2017-Nov-11 09:00N 38°43' W 009°07'0 0.0
2017-Nov-11 08:21N 38°43' W 009°07'0 0.0
2017-Nov-11 08:00N 38°43' W 009°07'1 1.6
2017-Nov-11 07:30N 38°43' W 009°07'5 9.5
2017-Nov-11 07:00N 38°41' W 009°13'5 9.2
2017-Nov-11 06:30N 38°40' W 009°18'611.7
2017-Nov-11 06:00N 38°35' W 009°22'713.3
2017-Nov-11 05:30N 38°29' W 009°19'612.7
2017-Nov-11 05:00N 38°23' W 009°16'611.3
2017-Nov-11 04:30N 38°22' W 009°09'713.7
2017-Nov-11 04:00N 38°25' W 009°01'612.6
2017-Nov-11 03:30N 38°30' W 008°55'3 5.3
2017-Nov-11 02:59N 38°31' W 008°52'0 0.0
2017-Nov-11 02:29N 38°31' W 008°52'0 0.0
2017-Nov-11 01:59N 38°31' W 008°52'0 0.0
2017-Nov-11 01:29N 38°31' W 008°52'0 0.0
2017-Nov-11 00:59N 38°31' W 008°52'0 0.0
2017-Nov-11 00:26N 38°31' W 008°52'0 0.0
2017-Nov-10 23:59N 38°31' W 008°52'0 0.0
2017-Nov-10 23:29N 38°31' W 008°52'0 0.0
2017-Nov-10 22:59N 38°31' W 008°52'0 0.0
2017-Nov-10 22:29N 38°31' W 008°52'0 0.0
2017-Nov-10 21:59N 38°31' W 008°52'0 0.0
2017-Nov-10 21:29N 38°31' W 008°52'0 0.0
2017-Nov-10 20:59N 38°31' W 008°52'0 0.0
2017-Nov-10 20:26N 38°31' W 008°52'0 0.0
2017-Nov-10 19:59N 38°31' W 008°52'0 0.0
2017-Nov-10 19:29N 38°31' W 008°52'0 0.0
2017-Nov-10 18:59N 38°31' W 008°52'0 0.0
2017-Nov-10 18:29N 38°31' W 008°52'0 0.0
2017-Nov-10 17:59N 38°31' W 008°52'0 0.0
2017-Nov-10 17:23N 38°31' W 008°52'0 0.0
2017-Nov-10 16:59N 38°31' W 008°52'0 0.0
2017-Nov-10 16:29N 38°31' W 008°52'0 0.0
2017-Nov-10 15:59N 38°31' W 008°52'0 0.0
2017-Nov-10 15:29N 38°31' W 008°52'0 0.0
2017-Nov-10 14:59N 38°31' W 008°52'0 0.0
2017-Nov-10 14:29N 38°31' W 008°52'0 0.0
2017-Nov-10 13:59N 38°31' W 008°52'0 0.0
2017-Nov-10 13:29N 38°31' W 008°52'0 1.0
2017-Nov-10 13:01N 38°31' W 008°53'510.9
2017-Nov-10 12:30N 38°27' W 008°58'612.4
2017-Nov-10 12:00N 38°23' W 009°04'815.6
2017-Nov-10 11:30N 38°21' W 009°14'816.4
2017-Nov-10 11:00N 38°26' W 009°22'816.3
2017-Nov-10 10:30N 38°31' W 009°31'816.1
2017-Nov-10 10:00N 38°36' W 009°38'816.2
2017-Nov-10 09:30N 38°44' W 009°43'918.0
2017-Nov-10 09:00N 38°53' W 009°44'917.8
2017-Nov-10 08:30N 39°01' W 009°44'917.5
2017-Nov-10 08:00N 39°10' W 009°46'917.2
2017-Nov-10 07:30N 39°19' W 009°46'917.6
2017-Nov-10 07:00N 39°28' W 009°46'4017.4
2017-Nov-10 04:44N 40°04' W 009°26'417.3
2017-Nov-10 04:30N 40°08' W 009°24'917.4
2017-Nov-10 04:00N 40°16' W 009°19'4617.8
2017-Nov-10 01:24N 40°57' W 008°51'717.4
2017-Nov-10 01:00N 41°03' W 008°47'714.5
2017-Nov-10 00:31N 41°09' W 008°43'  

Dump ship's entire track history